»·PEaware :: N721KJ KSLC-KASE

N721KJ :: KSLC-KASE

FLIGHT INFORMATION

Flight Status: Arrived
Operator: Privately registered:
United States
More flights under this callsign
Pilot: Tanner C. (11250)
Aircraft: GULFSTREAM G-1159C GULFSTREAM 4
(GLF4)
More flights by this aircraft type
Origin: KSLC Salt Lake City Intl
United States
Destination: KASE Aspen-Pitkin Co/Sardy
United States
More flights between these airports :: More routes between these airports
Route: +NSIGN5 EKR TRUEL DBL
File this flight plan on PilotEdge
Remarks:
Altitude:
(Current/Filed)
31,000ft
Speed:
(Current/Filed)
480kts
Departed: 16-Dec-17 07:32 PM
Arrived: 16-Dec-17 08:12 PM
Distance/Time
Traveled:
253nm/0:40
Distance/Time
To Go:
Arrived

Flight Plot

Page will automatically refresh every two minutes.

Flight plan parsing failed; only flown route is shown


Map Options




Map Legend


Flown Route
Filed Route
Departure Airport
Arrival Airport
Navaid (VOR, NDB)
Fix

Horizontal Profiles

Position Reports

Time Latitude Longitude Heading Altitude Ground
Speed
16-Dec-17 19:25 40.773407 -111.956936 281 4235ft 0kts
16-Dec-17 19:26 40.773407 -111.956936 281 4235ft 0kts
16-Dec-17 19:27 40.773407 -111.956936 281 4235ft 0kts
16-Dec-17 19:28 40.773407 -111.956936 281 4235ft 0kts
16-Dec-17 19:29 40.773407 -111.956936 281 4235ft 0kts
16-Dec-17 19:30 40.773407 -111.956936 281 4235ft 0kts
16-Dec-17 19:31 40.773066 -111.956889 133 4235ft 0kts
16-Dec-17 19:32 40.774199 -111.959667 270 4235ft 24kts
16-Dec-17 19:33 40.772817 -111.960835 233 4235ft 0kts
16-Dec-17 19:34 40.772817 -111.960835 233 4235ft 0kts
16-Dec-17 19:35 40.772817 -111.960835 233 4235ft 0kts
16-Dec-17 19:36 40.772817 -111.960835 233 4235ft 0kts
16-Dec-17 19:37 40.772953 -111.962028 339 4235ft 14kts
16-Dec-17 19:38 40.811414 -111.962188 358 6027ft 259kts
16-Dec-17 19:39 40.875210 -111.972610 352 11500ft 228kts
16-Dec-17 19:40 40.936769 -111.963358 54 15526ft 267kts
16-Dec-17 19:41 40.923042 -111.864108 115 19623ft 326kts
16-Dec-17 19:42 40.884671 -111.748461 118 23282ft 379kts
16-Dec-17 19:43 40.840763 -111.611819 107 26199ft 436kts
16-Dec-17 19:44 40.805060 -111.452785 105 28807ft 487kts
16-Dec-17 19:45 40.766806 -111.282064 106 30957ft 516kts
16-Dec-17 19:46 40.725459 -111.100139 106 30968ft 528kts
16-Dec-17 19:47 40.683972 -110.919069 106 30970ft 528kts
16-Dec-17 19:48 40.641783 -110.736328 106 30969ft 527kts
16-Dec-17 19:49 40.599258 -110.553767 107 30969ft 528kts
16-Dec-17 19:50 40.556632 -110.372136 107 30891ft 527kts
16-Dec-17 19:51 40.520334 -110.199666 104 30885ft 528kts
16-Dec-17 19:52 40.485419 -110.014942 104 30886ft 528kts
16-Dec-17 19:53 40.450152 -109.829977 104 30887ft 528kts
16-Dec-17 19:54 40.414710 -109.645842 104 30888ft 527kts
16-Dec-17 19:55 40.378778 -109.460902 104 30889ft 527kts
16-Dec-17 19:56 40.343705 -109.281870 107 30883ft 536kts
16-Dec-17 19:57 40.306981 -109.096390 107 30884ft 535kts
16-Dec-17 19:58 40.269629 -108.909284 107 30886ft 533kts
16-Dec-17 19:59 40.232399 -108.724502 107 30887ft 533kts
16-Dec-17 20:00 40.194809 -108.539569 107 30890ft 521kts
16-Dec-17 20:01 40.157704 -108.358766 107 30889ft 534kts
16-Dec-17 20:02 40.123230 -108.191985 108 30882ft 526kts
16-Dec-17 20:03 40.088253 -108.024198 108 30883ft 525kts
16-Dec-17 20:04 40.031390 -107.866605 131 30117ft 476kts
16-Dec-17 20:05 39.948768 -107.727736 132 27712ft 490kts
16-Dec-17 20:06 39.871699 -107.600334 131 25817ft 463kts
16-Dec-17 20:07 39.796562 -107.476463 132 23931ft 459kts
16-Dec-17 20:08 39.725852 -107.360938 128 22102ft 427kts
16-Dec-17 20:09 39.661371 -107.254768 133 20231ft 385kts
16-Dec-17 20:10 39.602661 -107.149925 129 18269ft 356kts
16-Dec-17 20:11 39.543496 -107.057737 151 16338ft 334kts
16-Dec-17 20:12 39.467531 -106.997303 139 14382ft 321kts
16-Dec-17 20:13 39.398569 -106.952870 159 12573ft 252kts
16-Dec-17 20:14 39.338502 -106.924146 159 11074ft 212kts
16-Dec-17 20:15 39.290714 -106.900388 160 9485ft 159kts
16-Dec-17 20:16 39.250996 -106.882117 159 8008ft 147kts
16-Dec-17 20:17 39.219616 -106.867159 159 7767ft 47kts
16-Dec-17 20:18 39.214760 -106.864398 70 7802ft 7kts
16-Dec-17 20:19 39.218853 -106.865669 62 7778ft 5kts

Navigation Log

Ident Type
Flight plan parsing failed, navigation log unavailable